Time;durP1;ratioP1;P1;durP2;ratioP2;P2;SDS_P1;SDS_P2;PMS_P1;PMS_P2;Temp;Humidity;BMP_temperature;BMP_pressure;BME280_temperature;BME280_humidity;BME280_pressure;Samples;Min_cycle;Max_cycle;Signal;HPM_P1;HPM_P2
2023/09/27 00:00:36;;;;;;;1004.80;878.15;;;14.90;99.90;;;;;;4874646;29;20044;-82
2023/09/27 00:03:03;;;;;;;1098.78;913.80;;;14.80;99.90;;;;;;4874937;29;20087;-83
2023/09/27 00:05:29;;;;;;;1083.35;913.08;;;14.80;99.90;;;;;;4875369;29;20155;-82
2023/09/27 00:07:56;;;;;;;1036.18;887.63;;;14.80;99.90;;;;;;4891236;29;20151;-82
2023/09/27 00:10:22;;;;;;;1091.38;917.05;;;14.80;99.90;;;;;;4890026;29;20056;-83
2023/09/27 00:12:48;;;;;;;956.70;851.80;;;14.80;99.90;;;;;;4891012;29;20437;-83
2023/09/27 00:15:14;;;;;;;937.25;837.20;;;14.80;99.90;;;;;;4890249;29;20064;-82
2023/09/27 00:17:41;;;;;;;988.63;874.97;;;14.80;99.90;;;;;;4874838;29;20076;-82
2023/09/27 00:20:11;;;;;;;964.00;858.05;;;14.70;99.90;;;;;;4875569;29;20040;-82
2023/09/27 00:22:39;;;;;;;1033.43;886.25;;;14.70;99.90;;;;;;4874792;29;20044;-83
2023/09/27 00:25:08;;;;;;;1105.65;923.13;;;14.70;99.90;;;;;;4890797;29;20116;-83
2023/09/27 00:27:35;;;;;;;1120.22;920.00;;;14.70;99.90;;;;;;4875375;29;20076;-83
2023/09/27 00:30:01;;;;;;;1051.72;892.17;;;14.70;99.90;;;;;;4873765;29;20052;-82
2023/09/27 00:32:26;;;;;;;1170.05;934.13;;;14.70;99.90;;;;;;4875199;29;20056;-82
2023/09/27 00:34:52;;;;;;;1259.93;955.75;;;14.60;99.90;;;;;;4890130;29;20060;-83
2023/09/27 00:37:17;;;;;;;1288.65;963.95;;;14.50;99.90;;;;;;4890243;29;20520;-82
2023/09/27 00:39:44;;;;;;;1144.63;926.72;;;14.40;99.90;;;;;;4889819;29;20048;-83
2023/09/27 00:42:09;;;;;;;976.75;869.38;;;14.40;99.90;;;;;;4890543;29;20052;-82
2023/09/27 00:44:36;;;;;;;1005.38;888.75;;;14.30;99.90;;;;;;4872650;29;20048;-83
2023/09/27 00:47:04;;;;;;;987.72;876.20;;;14.40;99.90;;;;;;4890281;29;20108;-82
2023/09/27 00:49:29;;;;;;;1080.65;906.83;;;14.40;99.90;;;;;;4890068;29;20047;-82
2023/09/27 00:51:56;;;;;;;1072.47;915.15;;;14.40;99.90;;;;;;4889555;29;20045;-82
2023/09/27 00:54:22;;;;;;;1075.47;915.22;;;14.40;99.90;;;;;;4889587;29;20048;-82
2023/09/27 00:56:49;;;;;;;1086.20;913.28;;;14.40;99.90;;;;;;4884749;29;20057;-82
2023/09/27 00:59:17;;;;;;;969.17;864.63;;;14.40;99.90;;;;;;4884663;29;20359;-82
2023/09/27 01:01:44;;;;;;;977.03;870.85;;;14.50;99.90;;;;;;4878754;29;20060;-82
2023/09/27 01:04:11;;;;;;;1006.60;889.95;;;14.50;99.90;;;;;;4885403;29;20060;-82
2023/09/27 01:06:37;;;;;;;1105.13;921.10;;;14.40;99.90;;;;;;4890327;29;20100;-83
2023/09/27 01:09:03;;;;;;;978.67;873.28;;;14.40;99.90;;;;;;4875100;29;20040;-82
2023/09/27 01:11:29;;;;;;;1013.72;893.38;;;14.40;99.90;;;;;;4890162;29;20075;-82
2023/09/27 01:13:55;;;;;;;1044.93;903.75;;;14.40;99.90;;;;;;4888289;29;20063;-81
2023/09/27 01:16:20;;;;;;;1061.20;908.67;;;14.40;99.90;;;;;;4905174;29;20052;-82
2023/09/27 01:18:46;;;;;;;1080.97;916.58;;;14.40;99.90;;;;;;4904505;29;20183;-82
2023/09/27 01:21:12;;;;;;;1094.50;907.15;;;14.40;99.90;;;;;;4905879;29;20057;-82
2023/09/27 01:23:40;;;;;;;1155.35;920.40;;;14.40;99.90;;;;;;4889752;29;20041;-82
2023/09/27 01:26:08;;;;;;;1175.38;941.97;;;14.30;99.90;;;;;;4889387;29;20479;-82
2023/09/27 01:28:36;;;;;;;1003.25;884.83;;;14.20;99.90;;;;;;4862833;29;20490;-83
2023/09/27 01:31:02;;;;;;;1160.10;925.15;;;14.20;99.90;;;;;;4890243;29;20053;-82
2023/09/27 01:33:28;;;;;;;1167.78;932.40;;;14.10;99.90;;;;;;4873962;29;20050;-82
2023/09/27 01:35:55;;;;;;;1097.35;906.55;;;14.00;99.90;;;;;;4889199;29;20052;-82
2023/09/27 01:38:21;;;;;;;1123.03;918.95;;;14.00;99.90;;;;;;4874663;29;20062;-82
2023/09/27 01:40:47;;;;;;;1077.72;908.42;;;14.00;99.90;;;;;;4888627;29;20052;-82
2023/09/27 01:43:12;;;;;;;1036.10;894.42;;;13.90;99.90;;;;;;4874254;29;20220;-83
2023/09/27 01:45:38;;;;;;;1035.82;887.13;;;13.90;99.90;;;;;;4889095;29;20084;-82
2023/09/27 01:48:05;;;;;;;1046.63;901.50;;;13.90;99.90;;;;;;4888973;29;20059;-82
2023/09/27 01:50:33;;;;;;;1037.82;893.58;;;13.80;99.90;;;;;;4889837;29;20501;-82
2023/09/27 01:52:59;;;;;;;1016.92;887.72;;;13.80;99.90;;;;;;4890497;29;20060;-82
2023/09/27 01:55:25;;;;;;;1013.67;879.03;;;13.80;99.90;;;;;;4876900;29;20056;-82
2023/09/27 01:57:52;;;;;;;1056.82;903.03;;;13.80;99.90;;;;;;4892789;29;20056;-82
2023/09/27 02:00:19;;;;;;;986.25;878.72;;;13.80;99.90;;;;;;4892067;29;20051;-82
2023/09/27 02:02:51;;;;;;;1000.97;890.95;;;13.70;99.90;;;;;;4876468;29;20139;-82
2023/09/27 02:05:17;;;;;;;1019.10;903.63;;;13.80;99.90;;;;;;4893131;29;20052;-82
2023/09/27 02:07:43;;;;;;;1029.70;890.05;;;13.80;99.90;;;;;;4892815;29;20052;-82
2023/09/27 02:10:10;;;;;;;994.65;887.60;;;13.90;99.90;;;;;;4891996;29;20112;-82
2023/09/27 02:12:40;;;;;;;986.92;879.92;;;13.90;99.90;;;;;;4892874;29;20051;-82
2023/09/27 02:15:08;;;;;;;973.83;868.05;;;14.00;99.90;;;;;;4892532;29;20497;-82
2023/09/27 02:17:35;;;;;;;1005.17;894.20;;;14.00;99.90;;;;;;4892925;29;20049;-82
2023/09/27 02:20:05;;;;;;;991.58;883.90;;;14.00;99.90;;;;;;4876446;29;20053;-82
2023/09/27 02:22:31;;;;;;;1012.05;895.78;;;14.10;99.90;;;;;;4892241;29;20063;-81
2023/09/27 02:24:57;;;;;;;987.50;880.08;;;14.10;99.90;;;;;;4892073;29;20484;-82
2023/09/27 02:27:23;;;;;;;1024.10;899.35;;;14.00;99.90;;;;;;4893128;29;20489;-82
2023/09/27 02:29:50;;;;;;;989.95;880.30;;;13.90;99.90;;;;;;4892213;29;20465;-82
2023/09/27 02:32:16;;;;;;;984.28;875.63;;;13.80;99.90;;;;;;4892450;29;20464;-82
2023/09/27 02:34:42;;;;;;;1004.83;893.72;;;13.80;99.90;;;;;;4882771;29;20500;-82
2023/09/27 02:37:08;;;;;;;963.42;861.30;;;13.80;99.90;;;;;;4891795;29;20056;-82
2023/09/27 02:39:34;;;;;;;1025.50;886.20;;;13.70;99.90;;;;;;4892195;29;20059;-82
2023/09/27 02:42:00;;;;;;;989.75;878.97;;;13.60;99.90;;;;;;4876754;29;20051;-82
2023/09/27 02:44:26;;;;;;;981.47;866.38;;;13.60;99.90;;;;;;4891211;29;20049;-82
2023/09/27 02:46:55;;;;;;;975.55;869.28;;;13.60;99.90;;;;;;4892451;29;20561;-83
2023/09/27 02:49:21;;;;;;;988.00;878.20;;;13.50;99.90;;;;;;4892027;29;20127;-82
2023/09/27 02:51:47;;;;;;;958.47;855.70;;;13.50;99.90;;;;;;4876214;29;20376;-82
2023/09/27 02:54:16;;;;;;;995.05;884.15;;;13.40;99.90;;;;;;4876714;29;20124;-82
2023/09/27 02:56:44;;;;;;;990.50;881.63;;;13.40;99.90;;;;;;4892381;29;20868;-82
2023/09/27 02:59:11;;;;;;;1007.63;885.88;;;13.30;99.90;;;;;;4891607;29;20052;-82
2023/09/27 03:01:40;;;;;;;988.60;881.30;;;13.30;99.90;;;;;;4891321;29;20060;-82
2023/09/27 03:04:15;;;;;;;1028.72;899.92;;;13.20;99.90;;;;;;4906776;29;20139;-82
2023/09/27 03:06:44;;;;;;;987.83;870.45;;;13.10;99.90;;;;;;4891720;29;20052;-81
2023/09/27 03:09:12;;;;;;;955.45;852.83;;;13.10;99.90;;;;;;4896402;29;20056;-82
2023/09/27 03:11:40;;;;;;;999.47;889.65;;;13.00;99.90;;;;;;4890965;29;20095;-82
2023/09/27 03:14:06;;;;;;;1015.50;901.55;;;13.00;99.90;;;;;;4885035;29;20052;-82
2023/09/27 03:16:32;;;;;;;960.25;860.33;;;13.00;99.90;;;;;;4887145;29;20063;-82
2023/09/27 03:18:58;;;;;;;1005.75;896.15;;;13.00;99.90;;;;;;4891024;29;20450;-82
2023/09/27 03:21:26;;;;;;;961.22;858.65;;;12.90;99.90;;;;;;4891911;29;20066;-82
2023/09/27 03:23:53;;;;;;;1011.20;899.55;;;12.90;99.90;;;;;;4875984;29;20100;-82
2023/09/27 03:26:20;;;;;;;946.00;848.58;;;12.90;99.90;;;;;;4892518;29;20505;-82
2023/09/27 03:28:46;;;;;;;967.63;862.88;;;12.90;99.90;;;;;;4891990;29;20465;-82
2023/09/27 03:31:11;;;;;;;966.70;865.25;;;12.90;99.90;;;;;;4891761;29;20591;-82
2023/09/27 03:33:37;;;;;;;958.80;859.35;;;12.90;99.90;;;;;;4870694;29;20109;-83
2023/09/27 03:36:03;;;;;;;1026.65;905.08;;;12.90;99.90;;;;;;4887790;29;20043;-82
2023/09/27 03:38:30;;;;;;;964.63;861.72;;;12.90;99.90;;;;;;4891662;29;20048;-82
2023/09/27 03:40:55;;;;;;;1013.05;901.15;;;12.80;99.90;;;;;;4890294;29;20053;-82
2023/09/27 03:43:21;;;;;;;948.75;849.25;;;12.90;99.90;;;;;;4891231;29;20075;-82
2023/09/27 03:45:48;;;;;;;1001.88;889.60;;;12.90;99.90;;;;;;4874610;29;20389;-82
2023/09/27 03:48:14;;;;;;;1110.78;915.85;;;12.90;99.90;;;;;;4890808;29;20044;-83
2023/09/27 03:50:40;;;;;;;1145.57;931.88;;;12.90;99.90;;;;;;4875470;29;20056;-81
2023/09/27 03:53:05;;;;;;;1074.78;904.60;;;12.90;99.90;;;;;;4893221;29;20045;-82
2023/09/27 03:55:31;;;;;;;1060.22;910.03;;;12.90;99.90;;;;;;4891816;29;20400;-82
2023/09/27 03:57:57;;;;;;;1177.70;938.55;;;12.90;99.90;;;;;;4891298;29;20052;-82
2023/09/27 04:00:23;;;;;;;988.70;877.25;;;12.90;99.90;;;;;;4889954;29;20143;-81
2023/09/27 04:02:49;;;;;;;1007.53;883.28;;;12.90;99.90;;;;;;4890530;29;20056;-82
2023/09/27 04:05:15;;;;;;;975.00;869.95;;;12.90;99.90;;;;;;4906612;29;20048;-82
2023/09/27 04:07:41;;;;;;;1065.90;902.10;;;12.90;99.90;;;;;;4890041;29;20107;-82
2023/09/27 04:10:08;;;;;;;992.10;880.03;;;12.90;99.90;;;;;;4888811;29;20049;-82
2023/09/27 04:12:34;;;;;;;1048.07;906.92;;;12.90;99.90;;;;;;4890650;29;20485;-82
2023/09/27 04:15:00;;;;;;;960.38;857.53;;;12.80;99.90;;;;;;4873779;29;20056;-83
2023/09/27 04:17:26;;;;;;;975.33;870.08;;;12.80;99.90;;;;;;4891287;29;20062;-82
2023/09/27 04:19:54;;;;;;;966.38;863.45;;;12.80;99.90;;;;;;4890414;29;20056;-82
2023/09/27 04:22:20;;;;;;;938.53;841.25;;;12.80;99.90;;;;;;4890964;29;20052;-82
2023/09/27 04:24:46;;;;;;;950.13;850.35;;;12.80;99.90;;;;;;4874430;29;20413;-83
2023/09/27 04:27:12;;;;;;;986.95;878.92;;;12.70;99.90;;;;;;4891187;29;20056;-83
2023/09/27 04:29:38;;;;;;;950.70;850.22;;;12.70;99.90;;;;;;4888426;29;20053;-82
2023/09/27 04:32:04;;;;;;;995.65;886.33;;;12.70;99.90;;;;;;4875210;29;20041;-82
2023/09/27 04:34:30;;;;;;;1003.28;887.47;;;12.60;99.90;;;;;;4881240;29;20057;-82
2023/09/27 04:36:56;;;;;;;952.70;854.60;;;12.60;99.90;;;;;;4881573;29;20417;-82
2023/09/27 04:39:21;;;;;;;1000.90;891.95;;;12.50;99.90;;;;;;4886340;29;20523;-82
2023/09/27 04:41:47;;;;;;;955.38;854.72;;;12.50;99.90;;;;;;4873758;29;20041;-82
2023/09/27 04:44:15;;;;;;;1013.53;893.45;;;12.40;99.90;;;;;;4889998;29;20062;-82
2023/09/27 04:46:41;;;;;;;942.40;844.28;;;12.50;99.90;;;;;;4890814;29;20041;-82
2023/09/27 04:49:07;;;;;;;1009.92;893.17;;;12.40;99.90;;;;;;4890557;29;20053;-82
2023/09/27 04:51:33;;;;;;;965.97;862.85;;;12.40;99.90;;;;;;4889353;29;20044;-82
2023/09/27 04:54:02;;;;;;;1009.75;897.95;;;12.40;99.90;;;;;;4874264;29;20121;-81
2023/09/27 04:56:31;;;;;;;972.53;868.90;;;12.30;99.90;;;;;;4889953;29;20045;-81
2023/09/27 04:59:01;;;;;;;996.13;886.33;;;12.30;99.90;;;;;;4889473;29;20044;-82
2023/09/27 05:01:27;;;;;;;978.63;872.10;;;12.30;99.90;;;;;;4874291;29;20757;-82
2023/09/27 05:03:53;;;;;;;1020.90;890.03;;;12.30;99.90;;;;;;4888646;29;20048;-81
2023/09/27 05:06:20;;;;;;;999.22;889.20;;;12.20;99.90;;;;;;4870740;29;20041;-82
2023/09/27 05:08:45;;;;;;;1016.15;892.20;;;12.20;99.90;;;;;;4872877;29;20100;-83
2023/09/27 05:11:11;;;;;;;1010.08;897.33;;;12.10;99.90;;;;;;4888427;29;20056;-82
2023/09/27 05:13:37;;;;;;;974.38;869.13;;;12.10;99.90;;;;;;4886582;29;20490;-82
2023/09/27 05:16:03;;;;;;;968.35;862.80;;;12.10;99.90;;;;;;4877080;29;20096;-82
2023/09/27 05:18:29;;;;;;;1055.00;907.97;;;12.00;99.90;;;;;;4886866;29;20056;-83
2023/09/27 05:20:55;;;;;;;1043.00;899.42;;;12.00;99.90;;;;;;4890008;29;20458;-83
2023/09/27 05:23:20;;;;;;;1029.88;898.38;;;12.00;99.90;;;;;;4888971;29;20124;-81
2023/09/27 05:25:47;;;;;;;992.38;880.55;;;11.90;99.90;;;;;;4887926;29;20148;-82
2023/09/27 05:28:12;;;;;;;1131.03;924.88;;;11.90;99.90;;;;;;4874178;29;20153;-82
2023/09/27 05:30:38;;;;;;;1136.38;926.22;;;12.00;99.90;;;;;;4891779;29;20144;-82
2023/09/27 05:33:06;;;;;;;1127.03;925.35;;;12.00;99.90;;;;;;4891949;29;20040;-81
2023/09/27 05:35:32;;;;;;;1097.53;927.40;;;12.00;99.90;;;;;;4892384;29;20500;-83
2023/09/27 05:37:58;;;;;;;1135.50;924.63;;;12.00;99.90;;;;;;4891849;29;20048;-82
2023/09/27 05:40:24;;;;;;;1090.53;911.33;;;12.00;99.90;;;;;;4891079;29;20135;-82
2023/09/27 05:42:50;;;;;;;1076.75;907.90;;;12.10;99.90;;;;;;4888677;29;20529;-82
2023/09/27 05:45:16;;;;;;;1139.93;929.47;;;12.10;99.90;;;;;;4880170;29;20543;-82
2023/09/27 05:47:42;;;;;;;1176.80;937.25;;;12.10;99.90;;;;;;4891269;29;20052;-82
2023/09/27 05:50:09;;;;;;;1168.95;925.67;;;12.10;99.90;;;;;;4892287;29;20412;-82
2023/09/27 05:52:35;;;;;;;1317.35;975.85;;;12.20;99.90;;;;;;4892611;29;20489;-82
2023/09/27 05:55:05;;;;;;;1361.00;991.97;;;12.30;99.90;;;;;;4892705;29;20863;-83
2023/09/27 05:57:31;;;;;;;1435.68;999.90;;;12.40;99.90;;;;;;4893302;29;20080;-82
2023/09/27 05:59:58;;;;;;;1380.60;983.88;;;12.40;99.90;;;;;;4875214;29;20493;-82
2023/09/27 06:02:30;;;;;;;1349.05;959.63;;;12.50;99.90;;;;;;4892541;29;20124;-82
2023/09/27 06:04:57;;;;;;;1233.00;951.13;;;12.50;99.90;;;;;;4883487;29;20480;-82
2023/09/27 06:07:22;;;;;;;1286.85;952.78;;;12.60;99.90;;;;;;4887663;29;20143;-82
2023/09/27 06:09:51;;;;;;;1242.65;938.25;;;12.60;99.90;;;;;;4866652;29;20069;-82
2023/09/27 06:12:17;;;;;;;1243.25;941.60;;;12.70;99.90;;;;;;4881447;29;20200;-82
2023/09/27 06:14:43;;;;;;;1136.95;928.78;;;12.70;99.90;;;;;;4885702;29;20049;-82
2023/09/27 06:17:10;;;;;;;1144.15;912.17;;;12.70;99.90;;;;;;4892674;29;20047;-82
2023/09/27 06:19:37;;;;;;;1133.40;916.72;;;12.80;99.90;;;;;;4891850;29;20481;-82
2023/09/27 06:22:06;;;;;;;1064.85;889.63;;;12.80;99.90;;;;;;4875650;29;20053;-82
2023/09/27 06:24:32;;;;;;;1073.00;904.25;;;12.80;99.90;;;;;;4892416;29;20362;-82
2023/09/27 06:26:59;;;;;;;1057.93;902.75;;;12.90;99.90;;;;;;4892673;29;20044;-82
2023/09/27 06:29:25;;;;;;;1072.03;892.65;;;12.90;99.90;;;;;;4891288;29;20044;-81
2023/09/27 06:31:51;;;;;;;1191.45;925.55;;;13.00;99.90;;;;;;4892839;29;20186;-82
2023/09/27 06:34:18;;;;;;;1086.70;913.08;;;13.00;99.90;;;;;;4882734;29;20049;-81
2023/09/27 06:36:48;;;;;;;1165.93;921.40;;;13.00;99.90;;;;;;4882974;29;20458;-81
2023/09/27 06:39:19;;;;;;;1078.80;894.63;;;13.10;99.90;;;;;;4895771;29;20060;-81
2023/09/27 06:41:45;;;;;;;1007.65;882.97;;;13.10;99.90;;;;;;4886883;29;20053;-81
2023/09/27 06:44:14;;;;;;;1036.38;899.22;;;13.10;99.90;;;;;;4864423;29;20045;-82
2023/09/27 06:46:40;;;;;;;1058.78;896.40;;;13.10;99.90;;;;;;4901617;29;20132;-82
2023/09/27 06:49:07;;;;;;;1012.38;877.97;;;13.10;99.90;;;;;;4891645;29;20136;-82
2023/09/27 06:51:33;;;;;;;1046.30;886.25;;;13.10;99.90;;;;;;4890177;29;20048;-82
2023/09/27 06:53:59;;;;;;;1082.35;898.40;;;13.20;99.90;;;;;;4892587;29;20083;-83
2023/09/27 06:56:25;;;;;;;1108.47;895.42;;;13.20;99.90;;;;;;4873138;29;20049;-82
2023/09/27 06:58:53;;;;;;;1224.78;938.40;;;13.30;99.90;;;;;;4890728;29;20063;-82
2023/09/27 07:01:19;;;;;;;1170.20;932.42;;;13.40;99.90;;;;;;4890351;29;20374;-82
2023/09/27 07:03:45;;;;;;;1321.40;962.03;;;13.50;99.90;;;;;;4874279;29;20063;-82
2023/09/27 07:06:11;;;;;;;1305.38;960.50;;;13.60;99.90;;;;;;4891789;29;20040;-82
2023/09/27 07:08:36;;;;;;;1291.43;955.17;;;13.70;99.90;;;;;;4894541;29;20059;-82
2023/09/27 07:11:04;;;;;;;1213.22;940.53;;;13.80;99.90;;;;;;4890138;29;20071;-81
2023/09/27 07:13:30;;;;;;;1289.05;957.15;;;13.90;99.90;;;;;;4874348;29;20408;-82
2023/09/27 07:15:56;;;;;;;1155.03;921.60;;;14.00;99.90;;;;;;4889014;29;20127;-82
2023/09/27 07:18:22;;;;;;;1234.35;945.65;;;14.10;99.90;;;;;;4905443;29;20052;-82
2023/09/27 07:20:50;;;;;;;1141.78;920.25;;;14.10;99.90;;;;;;4889877;29;20131;-82
2023/09/27 07:23:16;;;;;;;1089.18;916.38;;;14.20;99.90;;;;;;4890076;29;20058;-82
2023/09/27 07:25:44;;;;;;;1043.75;892.72;;;14.30;99.90;;;;;;4887911;29;20049;-82
2023/09/27 07:28:11;;;;;;;1119.47;913.97;;;14.40;99.90;;;;;;4874222;29;20051;-82
2023/09/27 07:30:37;;;;;;;1140.85;925.03;;;14.60;99.90;;;;;;4888812;29;20079;-82
2023/09/27 07:33:09;;;;;;;1077.22;902.22;;;14.70;99.90;;;;;;4872606;29;20409;-82
2023/09/27 07:35:35;;;;;;;950.97;848.42;;;14.80;99.90;;;;;;4896157;29;20079;-82
2023/09/27 07:38:01;;;;;;;887.33;795.78;;;15.00;99.90;;;;;;4889401;29;20045;-82
2023/09/27 07:40:27;;;;;;;863.13;777.83;;;15.10;99.90;;;;;;4873914;29;20048;-82
2023/09/27 07:42:53;;;;;;;922.20;829.03;;;15.10;99.90;;;;;;4890475;29;20489;-82
2023/09/27 07:45:22;;;;;;;893.30;803.83;;;15.20;99.90;;;;;;4875070;29;20059;-82
2023/09/27 07:47:53;;;;;;;913.38;819.65;;;15.20;99.90;;;;;;4874217;29;20044;-82
2023/09/27 07:50:42;;;;;;;902.00;810.47;;;15.30;99.90;;;;;;4875493;29;20052;-82
2023/09/27 07:53:11;;;;;;;906.45;813.03;;;15.40;99.90;;;;;;4874885;29;20052;-83
2023/09/27 07:55:43;;;;;;;861.63;775.55;;;15.50;99.90;;;;;;4890678;29;20064;-82
2023/09/27 07:58:10;;;;;;;891.60;800.17;;;15.60;99.90;;;;;;4891152;29;20059;-82
2023/09/27 08:00:35;;;;;;;861.17;774.90;;;15.60;99.90;;;;;;4874008;29;20048;-83
2023/09/27 08:03:02;;;;;;;855.60;771.72;;;15.70;99.90;;;;;;4874978;29;20068;-82
2023/09/27 08:05:28;;;;;;;895.15;803.92;;;15.90;99.90;;;;;;4875569;29;20155;-82
2023/09/27 08:07:54;;;;;;;892.17;799.83;;;16.00;99.90;;;;;;4890042;29;20078;-81
2023/09/27 08:10:21;;;;;;;886.08;796.33;;;16.10;99.90;;;;;;4890260;29;20124;-82
2023/09/27 08:12:47;;;;;;;827.53;745.80;;;16.20;99.90;;;;;;4875350;29;20036;-82
2023/09/27 08:15:13;;;;;;;813.10;734.53;;;16.30;99.90;;;;;;4888886;29;20048;-82
2023/09/27 08:17:39;;;;;;;813.97;733.80;;;16.50;99.90;;;;;;4890588;29;20056;-82
2023/09/27 08:20:09;;;;;;;811.22;734.05;;;16.60;99.90;;;;;;4875280;29;20051;-82
2023/09/27 08:22:36;;;;;;;774.15;700.92;;;16.70;99.90;;;;;;4890613;29;20188;-83
2023/09/27 08:25:05;;;;;;;739.25;670.72;;;16.80;99.90;;;;;;4890320;29;20135;-82
2023/09/27 08:27:30;;;;;;;784.63;710.13;;;17.00;99.90;;;;;;4875513;29;20060;-82
2023/09/27 08:29:56;;;;;;;734.38;664.88;;;17.10;99.90;;;;;;4872914;29;20055;-82
2023/09/27 08:32:22;;;;;;;807.65;729.30;;;17.20;99.90;;;;;;4875872;29;20131;-82
2023/09/27 08:34:48;;;;;;;819.53;737.20;;;17.40;99.90;;;;;;4865468;29;20501;-82
2023/09/27 08:37:14;;;;;;;862.50;767.92;;;17.40;99.90;;;;;;4874701;29;20041;-82
2023/09/27 08:39:41;;;;;;;864.70;771.33;;;17.50;99.90;;;;;;4874197;29;20068;-82
2023/09/27 08:42:07;;;;;;;823.13;736.22;;;17.50;99.90;;;;;;4874208;29;20520;-82
2023/09/27 08:44:34;;;;;;;880.50;785.50;;;17.70;99.90;;;;;;4873133;29;20164;-82
2023/09/27 08:47:01;;;;;;;883.63;781.78;;;17.70;99.90;;;;;;4890139;29;20059;-82
2023/09/27 08:49:26;;;;;;;904.50;779.17;;;17.80;99.90;;;;;;4888958;29;20048;-82
2023/09/27 08:51:53;;;;;;;946.50;762.83;;;17.90;99.90;;;;;;4874525;29;20135;-82
2023/09/27 08:54:21;;;;;;;918.13;772.13;;;18.00;99.90;;;;;;4890223;29;20136;-83
2023/09/27 08:56:50;;;;;;;932.72;754.50;;;18.10;99.90;;;;;;4873663;29;20044;-83
2023/09/27 08:59:18;;;;;;;921.08;764.33;;;18.20;99.90;;;;;;4874663;29;20397;-82
2023/09/27 09:01:44;;;;;;;848.28;757.17;;;18.30;99.90;;;;;;4874893;29;20071;-83
2023/09/27 09:04:11;;;;;;;896.38;781.05;;;18.40;99.90;;;;;;4893416;29;20055;-83
2023/09/27 09:06:39;;;;;;;955.55;798.78;;;18.50;99.90;;;;;;4877552;29;20107;-83
2023/09/27 09:09:11;;;;;;;916.17;816.25;;;18.60;99.90;;;;;;4878527;29;20047;-82
2023/09/27 09:11:47;;;;;;;938.65;818.47;;;18.70;99.90;;;;;;4892674;29;20057;-82
2023/09/27 09:14:22;;;;;;;906.10;801.60;;;18.80;99.90;;;;;;4878200;29;20099;-83
2023/09/27 09:16:52;;;;;;;989.10;839.72;;;18.90;99.90;;;;;;4877275;29;20528;-82
2023/09/27 09:19:23;;;;;;;937.67;790.15;;;19.00;99.90;;;;;;4878549;29;20113;-83
2023/09/27 09:22:04;;;;;;;931.55;830.97;;;19.00;99.90;;;;;;4877581;29;20544;-83
2023/09/27 09:24:32;;;;;;;949.05;838.05;;;19.20;99.90;;;;;;4877330;29;20048;-83
2023/09/27 09:27:09;;;;;;;926.95;826.47;;;19.30;99.90;;;;;;4878641;29;20396;-83
2023/09/27 09:29:53;;;;;;;930.08;827.28;;;19.40;99.90;;;;;;4892352;29;20084;-82
2023/09/27 09:32:20;;;;;;;932.85;809.97;;;19.50;99.90;;;;;;4877596;29;20060;-83
2023/09/27 09:34:47;;;;;;;895.30;790.20;;;19.50;99.90;;;;;;4868196;29;20044;-82
2023/09/27 09:37:23;;;;;;;926.65;823.88;;;19.50;99.90;;;;;;4877666;29;20513;-83
2023/09/27 09:39:53;;;;;;;890.08;782.45;;;19.60;99.90;;;;;;4892059;29;20071;-83
2023/09/27 09:42:31;;;;;;;903.08;798.55;;;19.70;99.90;;;;;;4893665;29;20045;-83
2023/09/27 09:45:06;;;;;;;939.63;807.35;;;19.80;99.90;;;;;;4881914;29;20396;-83
2023/09/27 09:47:38;;;;;;;889.40;795.40;;;19.90;99.90;;;;;;4892611;29;20080;-83
2023/09/27 09:50:06;;;;;;;887.80;793.70;;;20.00;99.90;;;;;;4893551;29;20387;-83
2023/09/27 09:52:35;;;;;;;904.90;792.13;;;20.00;99.90;;;;;;4891873;29;20052;-83
2023/09/27 09:55:06;;;;;;;919.10;817.05;;;20.00;99.90;;;;;;4894390;29;20044;-83
2023/09/27 09:57:35;;;;;;;856.78;766.72;;;20.10;99.90;;;;;;4892651;29;20056;-83
2023/09/27 10:00:12;;;;;;;863.42;773.22;;;20.30;99.90;;;;;;4891338;29;20044;-83
2023/09/27 10:02:51;;;;;;;847.55;762.00;;;20.30;99.90;;;;;;4862057;29;20056;-83
2023/09/27 10:05:23;;;;;;;887.88;794.28;;;20.40;99.90;;;;;;4904065;29;20222;-83
2023/09/27 10:07:51;;;;;;;877.50;786.53;;;20.40;99.90;;;;;;4875969;29;20047;-83
2023/09/27 10:10:18;;;;;;;827.60;746.53;;;20.40;99.90;;;;;;4892703;29;20055;-83
2023/09/27 10:12:50;;;;;;;771.30;698.33;;;20.40;99.90;;;;;;4892393;29;20186;-83
2023/09/27 10:15:18;;;;;;;844.55;759.22;;;20.50;99.90;;;;;;4890361;29;20127;-83
2023/09/27 10:17:45;;;;;;;840.63;755.45;;;20.50;99.90;;;;;;4876949;29;20124;-83
2023/09/27 10:20:13;;;;;;;790.03;714.47;;;20.50;99.90;;;;;;4892188;29;20055;-83
2023/09/27 10:22:44;;;;;;;762.70;691.63;;;20.60;99.90;;;;;;4876290;29;20052;-83
2023/09/27 10:25:31;;;;;;;765.10;693.33;;;20.60;99.90;;;;;;4876758;29;20112;-83
2023/09/27 10:28:04;;;;;;;765.05;694.15;;;20.70;99.90;;;;;;4891500;29;20056;-83
2023/09/27 10:30:42;;;;;;;;;;;20.70;99.90;;;;;;4892557;29;20388;-83
2023/09/27 10:33:17;;;;;;;774.45;697.90;;;20.70;99.90;;;;;;4876232;29;20295;-83
2023/09/27 10:35:44;;;;;;;784.95;709.08;;;20.70;99.90;;;;;;4899144;29;20048;-83
2023/09/27 10:38:10;;;;;;;760.38;689.72;;;20.70;99.90;;;;;;4876923;29;20486;-83
2023/09/27 10:40:46;;;;;;;741.78;673.60;;;20.70;99.90;;;;;;4891960;29;20048;-83
2023/09/27 10:43:32;;;;;;;769.35;696.72;;;20.60;99.90;;;;;;4876249;29;20113;-83
2023/09/27 10:46:04;;;;;;;724.30;657.63;;;20.60;99.90;;;;;;4865407;29;20606;-83
2023/09/27 10:48:33;;;;;;;746.35;677.53;;;20.60;99.90;;;;;;4891544;29;20477;-83
2023/09/27 10:50:59;;;;;;;759.95;686.42;;;20.60;99.90;;;;;;4891408;29;20056;-83
2023/09/27 10:53:26;;;;;;;736.35;665.72;;;20.50;99.90;;;;;;4892250;29;20048;-83
2023/09/27 10:55:52;;;;;;;723.42;657.33;;;20.60;99.90;;;;;;4891074;29;20052;-83
2023/09/27 10:58:18;;;;;;;763.10;690.40;;;20.60;99.90;;;;;;4891954;29;20080;-83
2023/09/27 11:00:53;;;;;;;768.90;695.17;;;20.70;99.90;;;;;;4890560;29;20090;-83
2023/09/27 11:03:19;;;;;;;757.58;686.35;;;20.70;99.90;;;;;;4891093;29;20405;-83
2023/09/27 11:05:45;;;;;;;768.15;694.75;;;20.70;99.90;;;;;;4891359;29;20060;-83
2023/09/27 11:08:12;;;;;;;803.35;725.60;;;20.70;99.90;;;;;;4891584;29;20047;-83
2023/09/27 11:10:38;;;;;;;743.75;675.17;;;20.70;99.90;;;;;;4875217;29;20187;-83
2023/09/27 11:13:11;;;;;;;750.75;680.90;;;20.70;99.90;;;;;;4891901;29;20059;-83
2023/09/27 11:15:41;;;;;;;765.65;694.75;;;20.70;99.90;;;;;;4891473;29;20064;-83
2023/09/27 11:18:07;;;;;;;726.85;660.67;;;20.60;99.90;;;;;;4869966;29;20135;-83
2023/09/27 11:20:34;;;;;;;760.38;688.22;;;20.60;99.90;;;;;;4876175;29;20406;-83
2023/09/27 11:23:02;;;;;;;780.25;705.53;;;20.60;99.90;;;;;;4875512;29;20044;-83
2023/09/27 11:25:35;;;;;;;751.38;682.13;;;20.50;99.90;;;;;;4891800;29;20059;-83
2023/09/27 11:28:02;;;;;;;751.05;679.70;;;20.50;99.90;;;;;;4875815;29;20128;-83
2023/09/27 11:30:33;;;;;;;801.22;724.80;;;20.50;99.90;;;;;;4891237;29;20244;-84
2023/09/27 11:33:05;;;;;;;818.85;739.25;;;20.50;99.90;;;;;;4875476;29;20128;-83
2023/09/27 11:35:34;;;;;;;818.63;738.15;;;20.50;99.90;;;;;;4882859;29;20049;-84
2023/09/27 11:38:11;;;;;;;792.13;716.30;;;20.50;99.90;;;;;;4891718;29;20052;-83
2023/09/27 11:40:40;;;;;;;778.20;702.95;;;20.50;99.90;;;;;;4890802;29;20067;-83
2023/09/27 11:43:06;;;;;;;807.92;728.50;;;20.50;99.90;;;;;;4875706;29;20049;-83
2023/09/27 11:45:49;;;;;;;764.65;692.60;;;20.60;99.90;;;;;;4870313;29;20055;-83
2023/09/27 11:48:16;;;;;;;806.92;727.65;;;20.50;99.90;;;;;;4875511;29;20103;-83
2023/09/27 11:50:42;;;;;;;791.78;714.75;;;20.60;99.90;;;;;;4875138;29;20488;-83
2023/09/27 11:53:07;;;;;;;833.67;749.65;;;20.70;99.90;;;;;;4890004;29;20446;-83
2023/09/27 11:55:35;;;;;;;777.08;703.88;;;20.70;99.90;;;;;;4890716;29;20143;-83
2023/09/27 11:58:01;;;;;;;854.20;765.65;;;20.70;99.90;;;;;;4889840;29;20067;-83
2023/09/27 12:00:28;;;;;;;838.42;752.83;;;20.70;99.90;;;;;;4888814;29;20111;-81
2023/09/27 12:02:54;;;;;;;818.50;737.13;;;20.80;99.90;;;;;;4885821;29;20170;-84
2023/09/27 12:05:22;;;;;;;817.72;737.58;;;20.90;99.90;;;;;;4872811;29;20159;-86